createdAt,value
2018-05-03T00:00:12.930Z,3.40
2018-05-03T00:02:39.513Z,3.87
2018-05-03T00:05:06.103Z,3.70
2018-05-03T00:07:32.667Z,3.70
2018-05-03T00:09:59.228Z,3.97
2018-05-03T00:12:25.798Z,3.70
2018-05-03T00:14:52.383Z,3.70
2018-05-03T00:17:18.949Z,4.30
2018-05-03T00:19:45.523Z,4.13
2018-05-03T00:22:12.472Z,3.70
2018-05-03T00:24:39.077Z,3.70
2018-05-03T00:27:05.649Z,3.60
2018-05-03T00:29:32.213Z,3.77
2018-05-03T00:31:58.796Z,4.20
2018-05-03T00:34:25.361Z,3.97
2018-05-03T00:36:51.933Z,4.07
2018-05-03T00:39:18.506Z,3.90
2018-05-03T00:41:45.087Z,4.00
2018-05-03T00:44:11.652Z,4.00
2018-05-03T00:46:41.724Z,4.00
2018-05-03T00:49:08.291Z,4.03
2018-05-03T00:51:34.878Z,4.17
2018-05-03T00:54:01.441Z,4.30
2018-05-03T00:56:28.007Z,4.00
2018-05-03T00:58:54.609Z,4.00
2018-05-03T01:01:21.161Z,4.37
2018-05-03T01:03:47.735Z,3.40
2018-05-03T01:06:14.302Z,4.23
2018-05-03T01:08:40.882Z,4.13
2018-05-03T01:11:07.457Z,4.43
2018-05-03T01:13:34.039Z,4.40
2018-05-03T01:16:00.608Z,4.13
2018-05-03T01:18:27.184Z,4.20
2018-05-03T01:20:53.749Z,4.03
2018-05-03T01:23:20.313Z,3.73
2018-05-03T01:25:46.889Z,4.00
2018-05-03T01:28:13.477Z,4.27
2018-05-03T01:30:40.054Z,4.30
2018-05-03T01:33:06.617Z,4.00
2018-05-03T01:35:38.937Z,4.33
2018-05-03T01:38:05.515Z,4.33
2018-05-03T01:40:32.156Z,4.60
2018-05-03T01:42:58.725Z,4.40
2018-05-03T01:45:25.310Z,3.90
2018-05-03T01:47:51.873Z,3.90
2018-05-03T01:50:18.460Z,3.93
2018-05-03T01:52:45.028Z,4.30
2018-05-03T01:55:11.594Z,4.30
2018-05-03T01:57:38.158Z,4.20
2018-05-03T02:00:04.764Z,4.50
2018-05-03T02:02:31.334Z,4.50
2018-05-03T02:04:57.970Z,4.20
2018-05-03T02:07:24.536Z,4.23
2018-05-03T02:09:51.114Z,4.23
2018-05-03T02:12:17.685Z,4.73
2018-05-03T02:14:44.277Z,4.40
2018-05-03T02:17:10.843Z,4.90
2018-05-03T02:19:37.421Z,4.47
2018-05-03T02:22:03.991Z,4.70
2018-05-03T02:24:30.558Z,4.40
2018-05-03T02:26:57.133Z,4.73
2018-05-03T02:29:23.705Z,4.63
2018-05-03T02:31:50.293Z,4.43
2018-05-03T02:34:16.845Z,4.10
2018-05-03T02:36:43.428Z,4.57
2018-05-03T02:39:10.005Z,4.40
2018-05-03T02:41:36.578Z,4.80
2018-05-03T02:44:03.150Z,4.07
2018-05-03T02:46:29.721Z,4.53
2018-05-03T02:48:56.298Z,4.20
2018-05-03T02:51:22.875Z,4.43
2018-05-03T02:53:49.443Z,4.67
2018-05-03T02:56:16.038Z,4.10
2018-05-03T02:58:48.379Z,4.30
2018-05-03T03:01:38.727Z,4.40
2018-05-03T03:04:29.461Z,4.87
2018-05-03T03:07:07.674Z,4.30
2018-05-03T03:09:46.083Z,4.50
2018-05-03T03:12:33.854Z,4.47
2018-05-03T03:15:12.026Z,4.73
2018-05-03T03:17:50.325Z,4.60
2018-05-03T03:20:35.498Z,4.90
2018-05-03T03:23:13.806Z,4.27
2018-05-03T03:25:46.258Z,4.50
2018-05-03T03:28:24.434Z,4.50
2018-05-03T03:31:02.632Z,3.90
2018-05-03T03:33:34.897Z,4.53
2018-05-03T03:36:07.241Z,4.20
2018-05-03T03:38:39.710Z,5.57
2018-05-03T03:41:12.162Z,4.70
2018-05-03T03:43:44.982Z,5.00
2018-05-03T03:46:11.545Z,5.00
2018-05-03T03:48:38.113Z,5.27
2018-05-03T03:51:04.677Z,5.00
2018-05-03T03:53:31.241Z,4.57
2018-05-03T03:55:57.825Z,4.50
2018-05-03T03:58:24.387Z,4.90
2018-05-03T04:00:50.957Z,4.93
2018-05-03T04:03:17.532Z,5.27
2018-05-03T04:05:44.121Z,5.40
2018-05-03T04:08:10.670Z,5.90
2018-05-03T04:10:37.239Z,6.00
2018-05-03T04:13:03.801Z,6.30
2018-05-03T04:15:30.402Z,6.80
2018-05-03T04:18:02.832Z,6.70
2018-05-03T04:20:40.053Z,7.70
2018-05-03T04:23:12.426Z,8.33
2018-05-03T04:25:44.855Z,7.87
2018-05-03T04:28:11.434Z,8.07
2018-05-03T04:30:38.001Z,8.53
2018-05-03T04:33:04.575Z,8.37
2018-05-03T04:35:31.141Z,8.60
2018-05-03T04:37:57.721Z,8.80
2018-05-03T04:40:24.303Z,8.17
2018-05-03T04:42:50.893Z,8.90
2018-05-03T04:45:17.466Z,8.13
2018-05-03T04:47:44.091Z,8.47
2018-05-03T04:50:10.660Z,7.93
2018-05-03T04:52:37.234Z,8.43
2018-05-03T04:55:03.806Z,8.10
2018-05-03T04:57:30.397Z,8.20
2018-05-03T04:59:56.975Z,8.87
2018-05-03T05:02:23.578Z,8.57
2018-05-03T05:04:50.240Z,10.60
2018-05-03T05:07:16.737Z,9.80
2018-05-03T05:09:43.318Z,10.10
2018-05-03T05:12:09.897Z,9.33
2018-05-03T05:14:36.478Z,9.50
2018-05-03T05:17:03.086Z,8.43
2018-05-03T05:19:29.637Z,9.10
2018-05-03T05:21:56.237Z,9.00
2018-05-03T05:24:22.824Z,7.97
2018-05-03T05:26:49.391Z,7.87
2018-05-03T05:29:16.030Z,7.50
2018-05-03T05:31:42.584Z,7.10
2018-05-03T05:34:09.445Z,6.87
2018-05-03T05:36:36.014Z,6.93
2018-05-03T05:39:02.679Z,6.80
2018-05-03T05:41:29.153Z,6.80
2018-05-03T05:43:56.068Z,6.50
2018-05-03T05:46:22.616Z,6.30
2018-05-03T05:48:49.209Z,5.90
2018-05-03T05:51:15.915Z,6.00
2018-05-03T05:53:42.521Z,5.53
2018-05-03T05:56:09.126Z,6.00
2018-05-03T05:58:35.730Z,6.70
2018-05-03T06:01:02.306Z,6.37
2018-05-03T06:03:28.898Z,6.20
2018-05-03T06:05:55.454Z,7.90
2018-05-03T06:08:22.041Z,6.43
2018-05-03T06:10:48.607Z,6.13
2018-05-03T06:13:15.179Z,6.73
2018-05-03T06:15:41.846Z,6.97
2018-05-03T06:18:08.418Z,6.73
2018-05-03T06:20:35.012Z,6.33
2018-05-03T06:23:01.644Z,6.33
2018-05-03T06:25:28.197Z,5.93
2018-05-03T06:27:54.781Z,6.30
2018-05-03T06:30:21.350Z,5.80
2018-05-03T06:32:47.990Z,5.10
2018-05-03T06:35:14.565Z,5.90
2018-05-03T06:37:41.143Z,5.20
2018-05-03T06:40:07.722Z,5.63
2018-05-03T06:42:34.310Z,5.43
2018-05-03T06:45:00.898Z,5.20
2018-05-03T06:47:27.773Z,5.17
2018-05-03T06:49:54.553Z,5.30
2018-05-03T06:52:21.130Z,4.97
2018-05-03T06:54:47.706Z,5.93
2018-05-03T06:57:14.269Z,4.50
2018-05-03T06:59:40.849Z,5.40
2018-05-03T07:02:07.425Z,5.53
2018-05-03T07:04:33.998Z,4.73
2018-05-03T07:07:00.576Z,4.87
2018-05-03T07:09:27.156Z,4.80
2018-05-03T07:11:53.730Z,4.83
2018-05-03T07:14:20.301Z,4.70
2018-05-03T07:16:46.870Z,4.47
2018-05-03T07:19:13.536Z,4.60
2018-05-03T07:21:40.013Z,4.20
2018-05-03T07:24:06.597Z,4.10
2018-05-03T07:26:33.165Z,4.67
2018-05-03T07:28:59.761Z,4.20
2018-05-03T07:31:26.333Z,5.00
2018-05-03T07:33:52.904Z,5.27
2018-05-03T07:36:19.477Z,4.67
2018-05-03T07:38:46.178Z,4.07
2018-05-03T07:41:12.757Z,3.80
2018-05-03T07:43:39.341Z,3.77
2018-05-03T07:46:05.912Z,4.07
2018-05-03T07:48:32.539Z,3.90
2018-05-03T07:50:59.073Z,3.80
2018-05-03T07:53:25.633Z,4.00
2018-05-03T07:55:52.213Z,3.60
2018-05-03T07:58:18.778Z,3.90
2018-05-03T08:00:45.356Z,3.40
2018-05-03T08:03:11.925Z,3.20
2018-05-03T08:05:38.526Z,3.47
2018-05-03T08:08:05.093Z,3.40
2018-05-03T08:10:31.681Z,3.10
2018-05-03T08:12:58.241Z,3.00
2018-05-03T08:15:24.806Z,2.97
2018-05-03T08:17:51.378Z,3.03
2018-05-03T08:20:17.948Z,2.33
2018-05-03T08:22:44.518Z,2.77
2018-05-03T08:25:11.086Z,2.60
2018-05-03T08:27:37.718Z,2.53
2018-05-03T08:30:04.274Z,2.57
2018-05-03T08:32:30.853Z,2.77
2018-05-03T08:34:57.426Z,2.33
2018-05-03T08:37:24.058Z,2.80
2018-05-03T08:39:50.630Z,2.90
2018-05-03T08:42:17.210Z,2.60
2018-05-03T08:44:43.781Z,2.73
2018-05-03T08:47:10.347Z,2.30
2018-05-03T08:49:36.925Z,2.50
2018-05-03T08:52:03.518Z,2.67
2018-05-03T08:54:30.070Z,2.57
2018-05-03T08:56:56.637Z,2.83
2018-05-03T08:59:23.250Z,3.00
2018-05-03T09:01:49.895Z,2.90
2018-05-03T09:04:16.409Z,3.00
2018-05-03T09:06:42.969Z,3.07
2018-05-03T09:09:09.550Z,2.43
2018-05-03T09:11:36.113Z,2.30
2018-05-03T09:14:02.689Z,2.50
2018-05-03T09:16:29.257Z,2.73
2018-05-03T09:18:55.861Z,2.43
2018-05-03T09:21:22.447Z,2.40
2018-05-03T09:23:49.013Z,2.60
2018-05-03T09:26:15.595Z,2.67
2018-05-03T09:28:42.167Z,2.90
2018-05-03T09:31:08.743Z,3.10
2018-05-03T09:33:35.311Z,3.50
2018-05-03T09:36:01.890Z,3.70
2018-05-03T09:38:28.461Z,2.77
2018-05-03T09:40:55.038Z,3.20
2018-05-03T09:43:21.634Z,3.10
2018-05-03T09:45:48.189Z,3.10
2018-05-03T09:48:14.797Z,2.80
2018-05-03T09:50:41.379Z,3.00
2018-05-03T09:53:07.942Z,3.20
2018-05-03T09:55:34.522Z,3.30
2018-05-03T09:58:01.343Z,3.07
2018-05-03T10:00:27.909Z,3.57
2018-05-03T10:02:54.505Z,3.30
2018-05-03T10:05:21.065Z,3.73
2018-05-03T10:07:47.637Z,3.63
2018-05-03T10:10:14.205Z,3.00
2018-05-03T10:12:40.778Z,3.53
2018-05-03T10:15:07.345Z,3.43
2018-05-03T10:17:33.932Z,3.03
2018-05-03T10:20:00.486Z,3.50
2018-05-03T10:22:27.085Z,3.27
2018-05-03T10:24:53.665Z,3.50
2018-05-03T10:27:20.252Z,3.83
2018-05-03T10:29:46.817Z,3.50
2018-05-03T10:32:13.389Z,4.00
2018-05-03T10:34:39.961Z,3.33
2018-05-03T10:37:06.537Z,3.67
2018-05-03T10:39:33.117Z,3.20
2018-05-03T10:41:59.743Z,3.20
2018-05-03T10:44:26.241Z,3.63
2018-05-03T10:46:52.817Z,3.90
2018-05-03T10:49:19.411Z,3.27
2018-05-03T10:51:45.976Z,3.20
2018-05-03T10:54:12.553Z,3.07
2018-05-03T10:56:39.117Z,3.23
2018-05-03T10:59:05.730Z,3.17
2018-05-03T11:01:32.303Z,2.90
2018-05-03T11:03:58.869Z,3.00
2018-05-03T11:06:25.443Z,3.20
2018-05-03T11:08:52.037Z,3.50
2018-05-03T11:11:18.598Z,3.20
2018-05-03T11:13:45.169Z,3.20
2018-05-03T11:16:11.749Z,3.40
2018-05-03T11:18:38.337Z,3.20
2018-05-03T11:21:04.917Z,3.20
2018-05-03T11:23:31.846Z,3.30
2018-05-03T11:25:58.463Z,2.70
2018-05-03T11:28:24.973Z,2.50
2018-05-03T11:30:51.550Z,3.03
2018-05-03T11:33:18.117Z,2.57
2018-05-03T11:35:44.705Z,2.67
2018-05-03T11:38:11.269Z,2.83
2018-05-03T11:40:37.853Z,2.60
2018-05-03T11:43:04.423Z,3.00
2018-05-03T11:45:31.007Z,2.50
2018-05-03T11:47:57.609Z,3.20
2018-05-03T11:50:24.157Z,3.27
2018-05-03T11:52:50.725Z,3.47
2018-05-03T11:55:17.289Z,2.90
2018-05-03T11:57:43.868Z,2.93
2018-05-03T12:00:10.445Z,2.50
2018-05-03T12:02:37.022Z,2.77
2018-05-03T12:05:03.617Z,2.50
2018-05-03T12:07:30.233Z,2.43
2018-05-03T12:09:56.781Z,2.30
2018-05-03T12:12:23.357Z,2.50
2018-05-03T12:14:49.924Z,2.20
2018-05-03T12:17:16.494Z,2.60
2018-05-03T12:19:43.126Z,2.10
2018-05-03T12:22:09.705Z,2.40
2018-05-03T12:24:36.288Z,2.30
2018-05-03T12:27:02.849Z,2.17
2018-05-03T12:29:29.428Z,2.40
2018-05-03T12:31:55.993Z,2.20
2018-05-03T12:34:22.577Z,2.60
2018-05-03T12:36:49.149Z,2.47
2018-05-03T12:39:15.725Z,2.27
2018-05-03T12:41:42.310Z,2.20
2018-05-03T12:44:08.905Z,3.10
2018-05-03T12:46:35.479Z,2.87
2018-05-03T12:49:02.049Z,2.90
2018-05-03T12:51:28.614Z,3.20
2018-05-03T12:53:55.185Z,3.00
2018-05-03T12:56:21.771Z,3.37
2018-05-03T12:58:49.450Z,3.27
2018-05-03T13:01:16.025Z,3.53
2018-05-03T13:03:42.593Z,3.00
2018-05-03T13:06:09.206Z,3.00
2018-05-03T13:08:35.788Z,2.90
2018-05-03T13:11:02.354Z,2.80
2018-05-03T13:13:28.945Z,2.80
2018-05-03T13:15:55.508Z,2.43
2018-05-03T13:18:22.099Z,3.30
2018-05-03T13:20:48.685Z,3.03
2018-05-03T13:23:15.301Z,2.60
2018-05-03T13:25:41.886Z,3.27
2018-05-03T13:28:08.456Z,2.60
2018-05-03T13:30:35.022Z,3.37
2018-05-03T13:33:02.645Z,2.90
2018-05-03T13:35:29.202Z,2.60
2018-05-03T13:37:55.788Z,2.60
2018-05-03T13:40:22.349Z,2.97
2018-05-03T13:42:48.914Z,3.10
2018-05-03T13:45:15.491Z,3.13
2018-05-03T13:47:42.078Z,2.90
2018-05-03T13:50:08.645Z,2.90
2018-05-03T13:52:35.220Z,3.00
2018-05-03T13:55:01.793Z,2.40
2018-05-03T13:57:28.378Z,2.90
2018-05-03T13:59:54.946Z,2.60
2018-05-03T14:02:21.513Z,3.03
2018-05-03T14:04:48.085Z,2.80
2018-05-03T14:07:14.683Z,3.20
2018-05-03T14:09:41.225Z,2.80
2018-05-03T14:12:07.808Z,2.70
2018-05-03T14:14:34.381Z,2.80
2018-05-03T14:17:01.069Z,2.77
2018-05-03T14:19:27.630Z,2.53
2018-05-03T14:21:54.226Z,3.00
2018-05-03T14:24:20.809Z,2.80
2018-05-03T14:26:47.377Z,3.30
2018-05-03T14:29:13.981Z,2.50
2018-05-03T14:31:40.553Z,3.10
2018-05-03T14:34:07.127Z,2.93
2018-05-03T14:36:33.703Z,2.30
2018-05-03T14:39:00.269Z,2.90
2018-05-03T14:41:26.865Z,2.60
2018-05-03T14:43:53.430Z,2.77
2018-05-03T14:46:20.034Z,2.53
2018-05-03T14:48:46.613Z,3.03
2018-05-03T14:51:13.186Z,2.93
2018-05-03T14:53:39.762Z,2.80
2018-05-03T14:56:06.342Z,3.37
2018-05-03T14:58:32.909Z,3.10
2018-05-03T15:00:59.533Z,2.40
2018-05-03T15:03:26.051Z,2.70
2018-05-03T15:05:52.653Z,2.63
2018-05-03T15:08:19.221Z,2.87
2018-05-03T15:10:45.801Z,3.63
2018-05-03T15:13:12.377Z,3.50
2018-05-03T15:15:38.947Z,3.13
2018-05-03T15:18:05.514Z,2.50
2018-05-03T15:20:32.081Z,2.83
2018-05-03T15:22:58.677Z,3.37
2018-05-03T15:25:25.250Z,2.80
2018-05-03T15:27:51.825Z,2.77
2018-05-03T15:30:18.403Z,2.73
2018-05-03T15:32:44.986Z,2.80
2018-05-03T15:35:11.662Z,2.90
2018-05-03T15:37:38.230Z,2.43
2018-05-03T15:40:04.805Z,2.53
2018-05-03T15:42:31.369Z,2.67
2018-05-03T15:44:57.947Z,2.20
2018-05-03T15:47:24.510Z,2.57
2018-05-03T15:49:51.100Z,2.70
2018-05-03T15:52:17.667Z,2.97
2018-05-03T15:54:44.240Z,2.93
2018-05-03T15:57:10.821Z,2.83
2018-05-03T15:59:37.440Z,2.53
2018-05-03T16:02:03.993Z,2.70
2018-05-03T16:04:30.573Z,3.50
2018-05-03T16:06:57.139Z,3.10
2018-05-03T16:09:23.710Z,2.80
2018-05-03T16:11:50.286Z,2.80
2018-05-03T16:14:16.946Z,2.30
2018-05-03T16:16:43.529Z,2.90
2018-05-03T16:19:10.081Z,3.00
2018-05-03T16:21:36.641Z,2.80
2018-05-03T16:24:03.226Z,2.47
2018-05-03T16:26:29.793Z,2.67
2018-05-03T16:28:56.370Z,2.57
2018-05-03T16:31:22.939Z,2.80
2018-05-03T16:33:49.604Z,3.10
2018-05-03T16:36:16.153Z,2.57
2018-05-03T16:38:42.725Z,3.00
2018-05-03T16:41:09.310Z,3.10
2018-05-03T16:43:35.878Z,2.70
2018-05-03T16:46:02.463Z,2.77
2018-05-03T16:48:29.034Z,2.80
2018-05-03T16:50:55.593Z,2.70
2018-05-03T16:53:22.170Z,2.50
2018-05-03T16:55:48.749Z,2.77
2018-05-03T16:58:15.351Z,2.90
2018-05-03T17:00:41.926Z,2.83
2018-05-03T17:03:08.513Z,3.30
2018-05-03T17:05:35.081Z,2.90
2018-05-03T17:08:01.648Z,2.67
2018-05-03T17:10:28.296Z,3.00
2018-05-03T17:12:54.853Z,2.47
2018-05-03T17:15:21.462Z,2.77
2018-05-03T17:17:48.038Z,2.70
2018-05-03T17:20:14.602Z,2.20
2018-05-03T17:22:41.179Z,2.80
2018-05-03T17:25:07.827Z,3.03
2018-05-03T17:27:34.377Z,2.80
2018-05-03T17:30:00.940Z,2.73
2018-05-03T17:32:27.514Z,2.83
2018-05-03T17:34:54.126Z,2.30
2018-05-03T17:37:20.698Z,2.53
2018-05-03T17:39:47.277Z,2.23
2018-05-03T17:42:13.833Z,2.27
2018-05-03T17:44:40.405Z,2.73
2018-05-03T17:47:06.984Z,2.40
2018-05-03T17:49:33.566Z,2.30
2018-05-03T17:52:00.165Z,2.10
2018-05-03T17:54:26.709Z,2.40
2018-05-03T17:56:53.385Z,2.93
2018-05-03T17:59:19.845Z,2.37
2018-05-03T18:01:46.413Z,2.37
2018-05-03T18:04:12.989Z,2.40
2018-05-03T18:06:39.898Z,2.33
2018-05-03T18:09:06.497Z,2.07
2018-05-03T18:11:33.092Z,2.27
2018-05-03T18:13:59.649Z,2.33
2018-05-03T18:16:26.873Z,2.30
2018-05-03T18:18:53.417Z,2.10
2018-05-03T18:21:19.992Z,2.30
2018-05-03T18:23:46.569Z,2.07
2018-05-03T18:26:13.166Z,2.00
2018-05-03T18:28:39.698Z,2.27
2018-05-03T18:31:06.273Z,2.30
2018-05-03T18:33:32.841Z,2.50
2018-05-03T18:35:59.446Z,2.50
2018-05-03T18:38:26.017Z,2.33
2018-05-03T18:40:52.588Z,2.33
2018-05-03T18:43:19.833Z,2.30
2018-05-03T18:45:46.396Z,2.20
2018-05-03T18:48:13.792Z,2.20
2018-05-03T18:50:40.373Z,2.50
2018-05-03T18:53:06.953Z,2.00
2018-05-03T18:55:34.498Z,2.33
2018-05-03T18:58:01.177Z,2.37
2018-05-03T19:00:27.748Z,2.60
2018-05-03T19:02:54.317Z,2.07
2018-05-03T19:05:20.893Z,2.37
2018-05-03T19:07:47.467Z,2.33
2018-05-03T19:10:14.133Z,2.23
2018-05-03T19:12:40.609Z,2.10
2018-05-03T19:15:07.190Z,2.47
2018-05-03T19:17:33.771Z,2.27
2018-05-03T19:20:00.328Z,2.10
2018-05-03T19:22:26.903Z,4.70
2018-05-03T19:24:53.469Z,4.30
2018-05-03T19:27:20.041Z,2.80
2018-05-03T19:29:46.615Z,2.47
2018-05-03T19:32:13.180Z,2.33
2018-05-03T19:34:39.757Z,2.87
2018-05-03T19:37:06.332Z,2.97
2018-05-03T19:39:32.924Z,2.50
2018-05-03T19:41:59.527Z,2.63
2018-05-03T19:44:26.148Z,3.10
2018-05-03T19:46:52.736Z,3.10
2018-05-03T19:49:19.320Z,2.83
2018-05-03T19:51:45.891Z,2.23
2018-05-03T19:54:12.479Z,2.70
2018-05-03T19:56:39.064Z,2.67
2018-05-03T19:59:05.666Z,2.67
2018-05-03T20:01:32.244Z,2.50
2018-05-03T20:03:58.828Z,2.23
2018-05-03T20:06:25.401Z,2.30
2018-05-03T20:08:52.084Z,2.60
2018-05-03T20:11:18.700Z,2.30
2018-05-03T20:13:45.273Z,2.50
2018-05-03T20:16:11.846Z,2.80
2018-05-03T20:18:38.444Z,2.53
2018-05-03T20:21:05.028Z,2.53
2018-05-03T20:23:31.597Z,2.90
2018-05-03T20:25:58.182Z,2.80
2018-05-03T20:28:24.750Z,2.80
2018-05-03T20:30:51.330Z,2.57
2018-05-03T20:33:17.934Z,2.93
2018-05-03T20:35:44.556Z,2.80
2018-05-03T20:38:11.134Z,2.63
2018-05-03T20:40:37.731Z,2.53
2018-05-03T20:43:04.296Z,2.67
2018-05-03T20:45:30.879Z,3.20
2018-05-03T20:47:57.466Z,2.80
2018-05-03T20:50:24.068Z,3.07
2018-05-03T20:52:50.652Z,2.63
2018-05-03T20:55:17.236Z,2.23
2018-05-03T20:57:43.836Z,2.60
2018-05-03T21:00:10.415Z,2.50
2018-05-03T21:02:36.984Z,2.80
2018-05-03T21:05:03.556Z,2.63
2018-05-03T21:07:30.138Z,2.50
2018-05-03T21:09:56.711Z,3.00
2018-05-03T21:12:23.323Z,2.63
2018-05-03T21:14:49.898Z,2.77
2018-05-03T21:17:16.494Z,2.53
2018-05-03T21:19:43.064Z,2.63
2018-05-03T21:22:09.650Z,2.80
2018-05-03T21:24:36.227Z,2.90
2018-05-03T21:27:02.827Z,2.80
2018-05-03T21:29:29.394Z,2.90
2018-05-03T21:31:56.306Z,2.50
2018-05-03T21:34:22.883Z,2.50
2018-05-03T21:36:49.548Z,2.80
2018-05-03T21:39:16.127Z,2.73
2018-05-03T21:41:42.775Z,2.70
2018-05-03T21:44:09.291Z,2.80
2018-05-03T21:46:35.878Z,2.67
2018-05-03T21:49:02.472Z,2.67
2018-05-03T21:51:29.092Z,2.60
2018-05-03T21:53:55.670Z,2.93
2018-05-03T21:56:22.242Z,2.67
2018-05-03T21:58:48.835Z,3.10
2018-05-03T22:01:15.403Z,3.40
2018-05-03T22:03:41.981Z,3.00
2018-05-03T22:06:08.551Z,3.13
2018-05-03T22:08:35.146Z,2.80
2018-05-03T22:11:01.715Z,2.70
2018-05-03T22:13:28.291Z,2.60
2018-05-03T22:15:54.876Z,2.90
2018-05-03T22:18:21.446Z,2.80
2018-05-03T22:20:48.038Z,3.20
2018-05-03T22:23:14.611Z,2.90
2018-05-03T22:25:41.204Z,2.53
2018-05-03T22:28:07.782Z,2.93
2018-05-03T22:30:34.366Z,3.13
2018-05-03T22:33:00.943Z,3.17
2018-05-03T22:35:27.522Z,2.97
2018-05-03T22:37:54.096Z,2.80
2018-05-03T22:40:20.691Z,3.20
2018-05-03T22:42:47.263Z,3.40
2018-05-03T22:45:13.934Z,3.20
2018-05-03T22:47:40.519Z,3.20
2018-05-03T22:50:07.107Z,2.97
2018-05-03T22:52:33.696Z,3.17
2018-05-03T22:55:00.270Z,3.43
2018-05-03T22:57:26.846Z,3.00
2018-05-03T22:59:53.419Z,3.07
2018-05-03T23:02:19.999Z,3.17
2018-05-03T23:04:47.346Z,3.00
2018-05-03T23:07:14.870Z,3.10
2018-05-03T23:09:41.443Z,3.03
2018-05-03T23:12:08.029Z,3.07
2018-05-03T23:14:34.599Z,3.30
2018-05-03T23:17:01.187Z,3.30
2018-05-03T23:19:27.766Z,3.10
2018-05-03T23:21:54.350Z,3.30
2018-05-03T23:24:20.991Z,3.67
2018-05-03T23:26:47.862Z,2.90
2018-05-03T23:29:14.430Z,3.03
2018-05-03T23:31:41.010Z,3.20
2018-05-03T23:34:07.587Z,3.10
2018-05-03T23:36:34.158Z,3.30
2018-05-03T23:39:00.743Z,3.20
2018-05-03T23:41:27.350Z,3.43
2018-05-03T23:43:53.924Z,3.50
2018-05-03T23:46:20.506Z,3.10
2018-05-03T23:48:47.081Z,3.07
2018-05-03T23:51:13.655Z,3.23
2018-05-03T23:53:40.243Z,3.33
2018-05-03T23:56:06.822Z,3.07
2018-05-03T23:58:33.409Z,2.97
